Aérodrome :
LOGIN :

S'inscrire | Disclaimer

   EN    FR    IT 

 










Légende :    VFR   VFR Marginal   IFR   IFR Intensif   IFR Très Intensif
Visi : 
Plafond : 
>= 8 km
>= 3000ft
5 à 8 km
1000 à 3000 ft
1500m à 5 km
500 à 1000 ft
800 à 1500m
200 à 500 ft
< 800m
< 200 ft
Symboles :   Orages  Brouillard  Fortes neiges  Fortes précipitations  Vent > 20 kt
SIGMETs :   Divers  Orages  Givrage  Turbulence  Onde Orograph.  Cendres Volcan.







- Altitude de l'aérodrome : 1516 ft
- Code IATA : AGB


EDMA - Augsburg

DERNIER METAR :
  • 141250Z 22017KT 9999 FEW028 04/M01 Q1002

METARs EXPIRÉS :
  • 141220Z 22015KT 9999 FEW025 04/M01 Q1002
  • 141150Z 21014KT 9999 SCT023 04/M01 Q1002
  • 141120Z 22015KT 9999 SCT023 04/M00 Q1002
  • 141050Z 23015KT 9999 SCT022 04/00 Q1003
  • 141020Z 23015KT 9999 FEW016 04/M00 Q1003

TAF TAF EDMA
Valide du 14 à 12h jusqu'au 14 à 21h UTC


141100Z 1412/1421 23015G30KT 9999 SCT020
BECMG 1416/1418 22012KT
PROB30
TEMPO 1416/1418 3500 SHRASN BKN020TCU
TEMPO 1418/1420 2500 SNRA BKN010
Pas de NOTAMs connus pour ce terrain.



MET'MAP, la Météo Aéronautique d'un coup d'oeil ! - Copyright ORBIFLY Décembre 2007 - Disclaimer

ORBIFLY MET'MAP TEAM :

Programmation & Développement : Alexandra Zaïnal
Conception & Développement : Baudouin d'Aumeries
Co-Programmation & Développement : Marc-Olivier Méhu
Soutien technique & logistique : Manuel Goepfert

Contact : metmap@orbifly.com




SOURCES & CREDITS :

   NOAA